Tombarra — MPRD6 — position and weather

sailwx.info

Track history (hours):
 
Tides and Currents Weather Stations Pressure Air Temp Water Temp Dewpoint Dewpoint Depression Visibility Wind Speed Wind Dir Waves Ship Positions

Tombarra

Last reported at 2014-Aug-27 22:09 UTC. Time now 2014-Aug-30 10:32 UTC.
Position S 33°06' E 028°31'.

Length 199 m; draft 9.5 m.

Type: Ship. MMSI: 232971000.

Date/timePositionNaut miles runAvg speedWind from/ knotsBaromVisibWave heightAir tempDewpointWater temp
2014-Aug-27 22:09S 33°06' E 028°31'6016.8
2014-Aug-27 18:33S 33°33' E 027°27'2216.7
2014-Aug-27 17:14S 33°42' E 027°03'68 3.2
2014-Aug-26 20:05S 34°08' E 025°47'713.1
2014-Aug-26 19:32S 34°11' E 025°39'1715.5
2014-Aug-26 18:29S 34°16' E 025°20'1515.9
2014-Aug-26 17:32S 34°20' E 025°03'2316.2
2014-Aug-26 16:06S 34°28' E 024°36'27617.5
2014-Aug-26 00:20S 35°00' E 019°03'1418.2
2014-Aug-25 23:33S 34°54' E 018°47'2318.1
2014-Aug-25 22:18S 34°47' E 018°21'1318.0
2014-Aug-25 21:33S 34°35' E 018°14'1818.1
2014-Aug-25 20:33S 34°18' E 018°05'1918.2
2014-Aug-25 19:31S 34°01' E 017°56'2219.4
2014-Aug-25 18:23S 33°41' E 017°46'1619.1
2014-Aug-25 17:33S 33°25' E 017°39'8619.3
2014-Aug-25 13:06S 32°06' E 017°00'1619.0
2014-Aug-25 12:16S 31°52' E 016°53'9619.0
2014-Aug-25 07:13S 30°23' E 016°11'7519.0
2014-Aug-25 03:16S 29°12' E 015°42'  
Track history (hours):
 
Tides and Currents Weather Stations Pressure Air Temp Water Temp Dewpoint Dewpoint Depression Visibility Wind Speed Wind Dir Waves Ship Positions

Tombarra

Last reported at 2014-Aug-27 22:09 UTC. Time now 2014-Aug-30 10:32 UTC.
Position S 33°06' E 028°31'.

Length 199 m; draft 9.5 m.

Type: Ship. MMSI: 232971000.

Date/timePositionNaut miles runAvg speedWind from/ knotsBaromVisibWave heightAir tempDewpointWater temp
2014-Aug-27 22:09S 33°06' E 028°31'6016.8
2014-Aug-27 18:33S 33°33' E 027°27'2216.7
2014-Aug-27 17:14S 33°42' E 027°03'68 3.2
2014-Aug-26 20:05S 34°08' E 025°47'713.1
2014-Aug-26 19:32S 34°11' E 025°39'1715.5
2014-Aug-26 18:29S 34°16' E 025°20'1515.9
2014-Aug-26 17:32S 34°20' E 025°03'2316.2
2014-Aug-26 16:06S 34°28' E 024°36'27617.5
2014-Aug-26 00:20S 35°00' E 019°03'1418.2
2014-Aug-25 23:33S 34°54' E 018°47'2318.1
2014-Aug-25 22:18S 34°47' E 018°21'1318.0
2014-Aug-25 21:33S 34°35' E 018°14'1818.1
2014-Aug-25 20:33S 34°18' E 018°05'1918.2
2014-Aug-25 19:31S 34°01' E 017°56'2219.4
2014-Aug-25 18:23S 33°41' E 017°46'1619.1
2014-Aug-25 17:33S 33°25' E 017°39'8619.3
2014-Aug-25 13:06S 32°06' E 017°00'1619.0
2014-Aug-25 12:16S 31°52' E 016°53'9619.0
2014-Aug-25 07:13S 30°23' E 016°11'7519.0
2014-Aug-25 03:16S 29°12' E 015°42'  

Dump ship's entire track history